createdAt,value
2017-12-06T00:00:14.521Z,100846.20
2017-12-06T00:02:40.921Z,100842.70
2017-12-06T00:05:07.281Z,100835.56
2017-12-06T00:07:33.736Z,100834.30
2017-12-06T00:10:00.077Z,100826.97
2017-12-06T00:12:32.576Z,100827.84
2017-12-06T00:15:05.024Z,100833.94
2017-12-06T00:17:31.384Z,100837.55
2017-12-06T00:19:57.751Z,100830.59
2017-12-06T00:22:24.165Z,100827.28
2017-12-06T00:24:50.597Z,100826.91
2017-12-06T00:27:17.081Z,100826.21
2017-12-06T00:29:43.473Z,100829.66
2017-12-06T00:32:09.820Z,100819.17
2017-12-06T00:34:36.155Z,100812.14
2017-12-06T00:37:02.553Z,100820.33
2017-12-06T00:39:28.912Z,100828.56
2017-12-06T00:41:55.236Z,100824.58
2017-12-06T00:44:22.992Z,100822.73
2017-12-06T00:46:49.468Z,100834.97
2017-12-06T00:49:17.796Z,100829.31
2017-12-06T00:51:44.184Z,100818.50
2017-12-06T00:54:10.649Z,100828.20
2017-12-06T00:56:37.188Z,100822.56
2017-12-06T00:59:05.014Z,100826.80
2017-12-06T01:01:31.352Z,100830.26
2017-12-06T01:03:57.696Z,100832.27
2017-12-06T01:06:24.113Z,100834.23
2017-12-06T01:08:50.476Z,100832.78
2017-12-06T01:11:16.829Z,100837.22
2017-12-06T01:13:43.233Z,100825.98
2017-12-06T01:16:09.740Z,100835.45
2017-12-06T01:18:36.201Z,100839.06
2017-12-06T01:21:02.740Z,100844.78
2017-12-06T01:23:29.245Z,100846.47
2017-12-06T01:25:55.781Z,100848.72
2017-12-06T01:28:22.264Z,100847.50
2017-12-06T01:30:48.696Z,100848.31
2017-12-06T01:33:15.186Z,100847.45
2017-12-06T01:35:41.723Z,100847.27
2017-12-06T01:38:08.137Z,100840.31
2017-12-06T01:40:34.567Z,100832.14
2017-12-06T01:43:01.120Z,100826.13
2017-12-06T01:45:27.571Z,100826.51
2017-12-06T01:47:53.960Z,100830.73
2017-12-06T01:50:20.419Z,100828.50
2017-12-06T01:52:46.828Z,100825.67
2017-12-06T01:55:13.260Z,100830.34
2017-12-06T01:57:39.936Z,100824.21
2017-12-06T02:00:06.612Z,100834.19
2017-12-06T02:02:33.435Z,100833.59
2017-12-06T02:04:59.943Z,100830.22
2017-12-06T02:07:26.317Z,100828.87
2017-12-06T02:09:52.705Z,100829.23
2017-12-06T02:12:19.158Z,100817.81
2017-12-06T02:14:45.553Z,100824.67
2017-12-06T02:17:12.208Z,100815.54
2017-12-06T02:19:38.675Z,100823.75
2017-12-06T02:22:05.130Z,100815.93
2017-12-06T02:24:31.709Z,100811.95
2017-12-06T02:26:58.225Z,100812.63
2017-12-06T02:29:24.706Z,100821.66
2017-12-06T02:31:51.117Z,100810.55
2017-12-06T02:34:17.600Z,100809.62
2017-12-06T02:36:43.988Z,100814.94
2017-12-06T02:39:10.420Z,100808.42
2017-12-06T02:41:49.197Z,100803.99
2017-12-06T02:44:27.591Z,100804.39
2017-12-06T02:46:53.936Z,100798.52
2017-12-06T02:49:20.424Z,100804.26
2017-12-06T02:51:46.820Z,100804.25
2017-12-06T02:54:13.228Z,100805.08
2017-12-06T02:56:40.010Z,100804.86
2017-12-06T02:59:06.559Z,100804.45
2017-12-06T03:01:32.992Z,100795.67
2017-12-06T03:03:59.348Z,100796.48
2017-12-06T03:06:25.755Z,100796.89
2017-12-06T03:08:52.160Z,100796.09
2017-12-06T03:11:18.560Z,100801.25
2017-12-06T03:13:44.936Z,100796.13
2017-12-06T03:16:11.407Z,100799.91
2017-12-06T03:18:37.793Z,100804.34
2017-12-06T03:21:04.156Z,100797.67
2017-12-06T03:23:30.642Z,100800.25
2017-12-06T03:25:56.976Z,100805.30
2017-12-06T03:28:23.338Z,100809.19
2017-12-06T03:30:49.891Z,100812.55
2017-12-06T03:33:16.320Z,100816.53
2017-12-06T03:35:42.668Z,100817.06
2017-12-06T03:38:09.052Z,100811.33
2017-12-06T03:40:35.387Z,100820.02
2017-12-06T03:43:01.748Z,100821.80
2017-12-06T03:45:28.147Z,100810.66
2017-12-06T03:47:54.540Z,100814.47
2017-12-06T03:50:20.881Z,100815.30
2017-12-06T03:52:47.308Z,100809.13
2017-12-06T03:55:13.655Z,100815.84
2017-12-06T03:57:40.007Z,100822.80
2017-12-06T04:00:06.407Z,100820.16
2017-12-06T04:02:33.947Z,100822.14
2017-12-06T04:05:01.000Z,100816.46
2017-12-06T04:07:29.153Z,100823.54
2017-12-06T04:09:57.041Z,100820.59
2017-12-06T04:12:24.244Z,100820.58
2017-12-06T04:14:50.976Z,100816.09
2017-12-06T04:17:17.317Z,100815.29
2017-12-06T04:19:43.700Z,100812.76
2017-12-06T04:22:10.081Z,100815.94
2017-12-06T04:24:36.439Z,100814.98
2017-12-06T04:27:02.885Z,100809.32
2017-12-06T04:29:29.301Z,100814.69
2017-12-06T04:31:55.683Z,100811.28
2017-12-06T04:34:22.039Z,100801.19
2017-12-06T04:36:48.468Z,100800.28
2017-12-06T04:39:14.864Z,100805.87
2017-12-06T04:41:41.401Z,100798.97
2017-12-06T04:44:08.006Z,100796.37
2017-12-06T04:46:34.373Z,100799.04
2017-12-06T04:49:00.744Z,100798.11
2017-12-06T04:51:27.169Z,100801.15
2017-12-06T04:53:53.559Z,100801.98
2017-12-06T04:56:19.909Z,100801.96
2017-12-06T04:58:46.286Z,100802.81
2017-12-06T05:01:12.644Z,100805.03
2017-12-06T05:03:38.991Z,100812.11
2017-12-06T05:06:05.494Z,100801.25
2017-12-06T05:08:31.844Z,100796.43
2017-12-06T05:10:58.188Z,100794.62
2017-12-06T05:13:24.620Z,100795.93
2017-12-06T05:15:51.024Z,100791.06
2017-12-06T05:18:17.353Z,100798.84
2017-12-06T05:20:43.753Z,100797.97
2017-12-06T05:23:10.105Z,100798.80
2017-12-06T05:25:36.492Z,100797.97
2017-12-06T05:28:02.986Z,100804.89
2017-12-06T05:30:29.343Z,100804.02
2017-12-06T05:32:55.684Z,100797.48
2017-12-06T05:35:22.080Z,100797.09
2017-12-06T05:37:48.442Z,100792.70
2017-12-06T05:40:14.817Z,100792.20
2017-12-06T05:42:41.228Z,100784.86
2017-12-06T05:45:07.612Z,100789.19
2017-12-06T05:47:33.995Z,100796.11
2017-12-06T05:50:00.412Z,100796.58
2017-12-06T05:52:26.753Z,100801.41
2017-12-06T05:54:53.135Z,100807.46
2017-12-06T05:57:19.507Z,100803.98
2017-12-06T05:59:45.848Z,100814.38
2017-12-06T06:02:12.225Z,100811.31
2017-12-06T06:04:38.637Z,100810.91
2017-12-06T06:07:04.985Z,100809.14
2017-12-06T06:09:31.838Z,100809.99
2017-12-06T06:11:58.240Z,100804.82
2017-12-06T06:14:24.584Z,100803.08
2017-12-06T06:16:50.967Z,100808.35
2017-12-06T06:19:17.484Z,100807.57
2017-12-06T06:21:43.879Z,100805.84
2017-12-06T06:24:10.368Z,100800.14
2017-12-06T06:26:36.827Z,100803.02
2017-12-06T06:29:03.222Z,100804.98
2017-12-06T06:31:29.573Z,100808.30
2017-12-06T06:33:55.948Z,100815.22
2017-12-06T06:36:22.316Z,100812.58
2017-12-06T06:38:48.680Z,100813.39
2017-12-06T06:41:15.140Z,100818.08
2017-12-06T06:43:41.592Z,100814.52
2017-12-06T06:46:07.943Z,100816.19
2017-12-06T06:48:34.528Z,100825.73
2017-12-06T06:51:00.868Z,100823.59
2017-12-06T06:53:27.229Z,100824.34
2017-12-06T06:55:53.646Z,100816.45
2017-12-06T06:58:20.013Z,100820.55
2017-12-06T07:00:46.355Z,100821.50
2017-12-06T07:03:12.859Z,100824.97
2017-12-06T07:05:39.238Z,100827.07
2017-12-06T07:08:05.676Z,100822.23
2017-12-06T07:10:32.094Z,100821.77
2017-12-06T07:12:58.515Z,100820.43
2017-12-06T07:15:24.906Z,100809.96
2017-12-06T07:17:51.356Z,100812.97
2017-12-06T07:20:17.717Z,100811.76
2017-12-06T07:22:44.092Z,100815.15
2017-12-06T07:25:10.541Z,100803.61
2017-12-06T07:27:37.101Z,100809.09
2017-12-06T07:30:03.607Z,100796.84
2017-12-06T07:32:30.178Z,100800.04
2017-12-06T07:34:56.643Z,100802.36
2017-12-06T07:37:23.096Z,100804.92
2017-12-06T07:39:49.884Z,100795.08
2017-12-06T07:42:16.424Z,100789.13
2017-12-06T07:44:42.820Z,100795.81
2017-12-06T07:47:09.234Z,100797.66
2017-12-06T07:49:35.724Z,100797.44
2017-12-06T07:52:02.145Z,100796.37
2017-12-06T07:54:28.541Z,100784.44
2017-12-06T07:56:54.904Z,100793.84
2017-12-06T07:59:21.260Z,100796.86
2017-12-06T08:01:47.648Z,100803.88
2017-12-06T08:04:14.018Z,100794.24
2017-12-06T08:06:40.366Z,100798.72
2017-12-06T08:09:06.764Z,100793.42
2017-12-06T08:11:33.169Z,100796.45
2017-12-06T08:13:59.556Z,100789.14
2017-12-06T08:16:26.089Z,100797.65
2017-12-06T08:18:52.467Z,100792.67
2017-12-06T08:21:18.899Z,100792.72
2017-12-06T08:23:45.328Z,100787.45
2017-12-06T08:26:11.729Z,100787.80
2017-12-06T08:28:38.100Z,100794.69
2017-12-06T08:31:04.512Z,100790.55
2017-12-06T08:33:30.885Z,100784.83
2017-12-06T08:35:57.476Z,100783.01
2017-12-06T08:38:24.120Z,100775.59
2017-12-06T08:40:50.601Z,100775.17
2017-12-06T08:43:17.054Z,100774.69
2017-12-06T08:45:43.487Z,100777.31
2017-12-06T08:48:09.900Z,100766.70
2017-12-06T08:50:36.284Z,100761.50
2017-12-06T08:53:02.693Z,100775.70
2017-12-06T08:55:29.144Z,100773.61
2017-12-06T08:57:55.468Z,100766.00
2017-12-06T09:00:21.893Z,100771.70
2017-12-06T09:02:48.350Z,100767.97
2017-12-06T09:05:15.344Z,100762.13
2017-12-06T09:07:41.771Z,100755.63
2017-12-06T09:10:08.164Z,100757.88
2017-12-06T09:12:35.664Z,100744.18
2017-12-06T09:15:02.152Z,100751.73
2017-12-06T09:17:28.589Z,100754.03
2017-12-06T09:19:55.092Z,100747.70
2017-12-06T09:22:27.911Z,100746.69
2017-12-06T09:24:56.005Z,100738.64
2017-12-06T09:27:22.372Z,100740.23
2017-12-06T09:29:48.809Z,100748.34
2017-12-06T09:32:15.168Z,100738.85
2017-12-06T09:34:41.592Z,100735.19
2017-12-06T09:37:08.009Z,100724.91
2017-12-06T09:39:34.396Z,100723.75
2017-12-06T09:42:00.821Z,100715.37
2017-12-06T09:44:27.247Z,100709.50
2017-12-06T09:46:53.608Z,100711.75
2017-12-06T09:49:20.361Z,100705.33
2017-12-06T09:51:46.790Z,100714.38
2017-12-06T09:54:13.256Z,100701.95
2017-12-06T09:56:39.785Z,100700.52
2017-12-06T09:59:06.173Z,100700.85
2017-12-06T10:01:32.552Z,100690.64
2017-12-06T10:03:58.912Z,100697.67
2017-12-06T10:06:25.319Z,100700.84
2017-12-06T10:08:51.668Z,100699.23
2017-12-06T10:11:18.241Z,100691.45
2017-12-06T10:13:44.636Z,100682.08
2017-12-06T10:16:11.019Z,100688.16
2017-12-06T10:18:37.757Z,100678.31
2017-12-06T10:21:04.297Z,100677.22
2017-12-06T10:23:30.852Z,100662.86
2017-12-06T10:25:57.276Z,100664.98
2017-12-06T10:28:23.817Z,100651.02
2017-12-06T10:30:50.232Z,100650.37
2017-12-06T10:33:16.666Z,100649.00
2017-12-06T10:35:43.176Z,100647.76
2017-12-06T10:38:09.637Z,100647.06
2017-12-06T10:40:36.195Z,100645.48
2017-12-06T10:43:02.674Z,100639.21
2017-12-06T10:45:29.076Z,100633.27
2017-12-06T10:47:55.536Z,100635.24
2017-12-06T10:50:21.924Z,100639.05
2017-12-06T10:52:48.312Z,100629.83
2017-12-06T10:55:14.696Z,100622.33
2017-12-06T10:57:41.135Z,100635.62
2017-12-06T11:00:07.569Z,100634.60
2017-12-06T11:02:34.037Z,100632.31
2017-12-06T11:05:00.460Z,100620.89
2017-12-06T11:07:26.841Z,100640.59
2017-12-06T11:09:53.201Z,100635.61
2017-12-06T11:12:19.594Z,100633.67
2017-12-06T11:14:45.936Z,100642.86
2017-12-06T11:17:14.209Z,100638.69
2017-12-06T11:19:40.741Z,100631.52
2017-12-06T11:22:07.192Z,100637.61
2017-12-06T11:24:33.584Z,100642.91
2017-12-06T11:26:59.972Z,100645.00
2017-12-06T11:29:26.332Z,100643.17
2017-12-06T11:31:52.940Z,100636.45
2017-12-06T11:34:19.455Z,100648.91
2017-12-06T11:36:45.876Z,100633.03
2017-12-06T11:39:12.243Z,100632.10
2017-12-06T11:41:38.651Z,100624.65
2017-12-06T11:44:05.001Z,100622.42
2017-12-06T11:46:31.381Z,100633.97
2017-12-06T11:48:57.788Z,100625.26
2017-12-06T11:51:24.153Z,100608.40
2017-12-06T11:53:50.499Z,100609.53
2017-12-06T11:56:17.095Z,100607.61
2017-12-06T11:58:43.492Z,100607.09
2017-12-06T12:01:11.788Z,100619.41
2017-12-06T12:03:38.316Z,100622.44
2017-12-06T12:06:04.665Z,100605.66
2017-12-06T12:08:31.033Z,100604.38
2017-12-06T12:10:57.527Z,100600.44
2017-12-06T12:13:23.901Z,100602.52
2017-12-06T12:15:50.377Z,100602.87
2017-12-06T12:18:16.889Z,100598.34
2017-12-06T12:20:43.349Z,100598.21
2017-12-06T12:23:09.716Z,100600.55
2017-12-06T12:25:36.156Z,100586.64
2017-12-06T12:28:02.528Z,100595.24
2017-12-06T12:30:28.872Z,100594.83
2017-12-06T12:32:55.254Z,100608.12
2017-12-06T12:35:21.648Z,100591.53
2017-12-06T12:37:48.073Z,100597.14
2017-12-06T12:40:14.639Z,100596.42
2017-12-06T12:42:41.880Z,100597.71
2017-12-06T12:45:08.344Z,100599.80
2017-12-06T12:47:34.916Z,100587.97
2017-12-06T12:50:01.384Z,100596.58
2017-12-06T12:52:27.840Z,100605.17
2017-12-06T12:54:54.332Z,100608.03
2017-12-06T12:57:20.788Z,100607.88
2017-12-06T12:59:47.244Z,100616.25
2017-12-06T13:02:13.840Z,100601.38
2017-12-06T13:04:40.290Z,100612.48
2017-12-06T13:07:06.760Z,100606.63
2017-12-06T13:09:33.248Z,100607.95
2017-12-06T13:11:59.720Z,100618.33
2017-12-06T13:14:26.179Z,100615.86
2017-12-06T13:16:52.672Z,100613.44
2017-12-06T13:19:19.121Z,100617.55
2017-12-06T13:21:45.578Z,100617.02
2017-12-06T13:24:12.079Z,100614.77
2017-12-06T13:26:38.589Z,100615.59
2017-12-06T13:29:05.136Z,100620.45
2017-12-06T13:31:31.641Z,100622.65
2017-12-06T13:33:58.080Z,100620.97
2017-12-06T13:36:24.488Z,100626.31
2017-12-06T13:38:50.990Z,100624.53
2017-12-06T13:41:17.480Z,100624.42
2017-12-06T13:43:43.925Z,100628.49
2017-12-06T13:46:10.557Z,100625.92
2017-12-06T13:48:37.104Z,100632.86
2017-12-06T13:51:03.549Z,100627.03
2017-12-06T13:53:30.044Z,100629.36
2017-12-06T13:55:56.607Z,100627.03
2017-12-06T13:58:23.056Z,100631.33
2017-12-06T14:00:49.520Z,100634.55
2017-12-06T14:03:15.924Z,100643.07
2017-12-06T14:05:42.357Z,100639.59
2017-12-06T14:08:08.816Z,100644.47
2017-12-06T14:10:35.196Z,100640.45
2017-12-06T14:13:01.682Z,100636.86
2017-12-06T14:15:28.165Z,100640.66
2017-12-06T14:17:54.620Z,100632.14
2017-12-06T14:20:21.209Z,100637.70
2017-12-06T14:22:47.744Z,100633.45
2017-12-06T14:25:14.401Z,100630.61
2017-12-06T14:27:40.968Z,100641.91
2017-12-06T14:30:07.608Z,100647.80
2017-12-06T14:32:34.092Z,100637.52
2017-12-06T14:35:00.682Z,100637.37
2017-12-06T14:37:27.164Z,100632.36
2017-12-06T14:39:53.817Z,100632.34
2017-12-06T14:42:20.280Z,100630.95
2017-12-06T14:44:46.796Z,100637.31
2017-12-06T14:47:13.223Z,100632.41
2017-12-06T14:49:39.677Z,100633.73
2017-12-06T14:52:06.148Z,100630.80
2017-12-06T14:54:32.710Z,100638.00
2017-12-06T14:56:59.161Z,100638.27
2017-12-06T14:59:25.782Z,100635.46
2017-12-06T15:01:52.225Z,100636.05
2017-12-06T15:04:18.678Z,100636.45
2017-12-06T15:06:45.237Z,100642.61
2017-12-06T15:09:11.725Z,100632.54
2017-12-06T15:11:38.188Z,100635.00
2017-12-06T15:14:04.692Z,100637.33
2017-12-06T15:16:31.151Z,100644.22
2017-12-06T15:18:57.661Z,100639.30
2017-12-06T15:21:24.140Z,100644.97
2017-12-06T15:23:50.764Z,100644.11
2017-12-06T15:26:17.200Z,100651.19
2017-12-06T15:28:43.800Z,100645.36
2017-12-06T15:31:10.249Z,100651.55
2017-12-06T15:33:36.714Z,100653.86
2017-12-06T15:36:03.369Z,100647.54
2017-12-06T15:38:29.844Z,100650.05
2017-12-06T15:40:56.424Z,100657.35
2017-12-06T15:43:23.010Z,100650.53
2017-12-06T15:45:49.548Z,100647.50
2017-12-06T15:48:16.065Z,100654.84
2017-12-06T15:50:42.584Z,100649.97
2017-12-06T15:53:09.028Z,100647.12
2017-12-06T15:55:35.493Z,100653.38
2017-12-06T15:58:01.941Z,100656.87
2017-12-06T16:00:28.405Z,100656.72
2017-12-06T16:02:54.833Z,100644.80
2017-12-06T16:05:21.296Z,100643.80
2017-12-06T16:07:47.792Z,100651.23
2017-12-06T16:10:14.236Z,100639.20
2017-12-06T16:12:40.687Z,100638.10
2017-12-06T16:15:07.154Z,100644.27
2017-12-06T16:17:34.203Z,100640.37
2017-12-06T16:20:00.679Z,100645.77
2017-12-06T16:22:27.151Z,100637.02
2017-12-06T16:24:53.630Z,100637.75
2017-12-06T16:27:20.140Z,100628.44
2017-12-06T16:29:46.585Z,100626.72
2017-12-06T16:32:13.043Z,100628.22
2017-12-06T16:34:40.733Z,100625.86
2017-12-06T16:37:19.421Z,100624.80
2017-12-06T16:39:45.956Z,100621.97
2017-12-06T16:42:12.398Z,100626.42
2017-12-06T16:44:38.853Z,100627.77
2017-12-06T16:47:05.287Z,100629.16
2017-12-06T16:49:31.730Z,100615.30
2017-12-06T16:51:58.194Z,100623.48
2017-12-06T16:54:24.616Z,100622.47
2017-12-06T16:56:51.019Z,100618.61
2017-12-06T16:59:17.445Z,100629.91
2017-12-06T17:01:44.152Z,100635.15
2017-12-06T17:04:10.620Z,100639.94
2017-12-06T17:06:37.354Z,100641.50
2017-12-06T17:09:03.872Z,100640.32
2017-12-06T17:11:30.308Z,100628.48
2017-12-06T17:13:56.846Z,100632.64
2017-12-06T17:16:23.328Z,100632.28
2017-12-06T17:18:49.792Z,100632.09
2017-12-06T17:21:16.264Z,100624.77
2017-12-06T17:23:42.837Z,100625.36
2017-12-06T17:26:09.260Z,100626.30
2017-12-06T17:28:47.769Z,100625.14
2017-12-06T17:31:26.396Z,100638.25
2017-12-06T17:33:52.784Z,100640.80
2017-12-06T17:36:19.214Z,100643.20
2017-12-06T17:38:45.797Z,100638.88
2017-12-06T17:41:12.337Z,100645.34
2017-12-06T17:43:38.791Z,100641.25
2017-12-06T17:46:05.245Z,100639.00
2017-12-06T17:48:31.760Z,100628.11
2017-12-06T17:50:58.225Z,100623.15
2017-12-06T17:53:24.680Z,100624.61
2017-12-06T17:55:51.173Z,100628.45
2017-12-06T17:58:17.594Z,100628.56
2017-12-06T18:00:44.037Z,100642.38
2017-12-06T18:03:10.528Z,100639.47
2017-12-06T18:05:36.964Z,100635.75
2017-12-06T18:08:03.409Z,100636.95
2017-12-06T18:10:29.913Z,100631.72
2017-12-06T18:12:56.369Z,100639.45
2017-12-06T18:15:22.832Z,100636.63
2017-12-06T18:17:49.371Z,100641.32
2017-12-06T18:20:15.785Z,100633.13
2017-12-06T18:22:42.234Z,100632.86
2017-12-06T18:25:08.732Z,100634.73
2017-12-06T18:27:35.141Z,100621.89
2017-12-06T18:30:01.591Z,100628.44
2017-12-06T18:32:28.075Z,100623.83
2017-12-06T18:34:54.610Z,100622.44
2017-12-06T18:37:21.102Z,100619.65
2017-12-06T18:39:47.782Z,100620.27
2017-12-06T18:42:14.420Z,100625.16
2017-12-06T18:44:40.905Z,100637.86
2017-12-06T18:47:07.363Z,100633.77
2017-12-06T18:49:33.749Z,100640.63
2017-12-06T18:52:00.217Z,100639.81
2017-12-06T18:54:26.660Z,100643.11
2017-12-06T18:56:53.047Z,100644.24
2017-12-06T18:59:19.435Z,100640.11
2017-12-06T19:01:45.863Z,100638.53
2017-12-06T19:04:12.284Z,100633.61
2017-12-06T19:06:38.705Z,100643.42
2017-12-06T19:09:05.144Z,100642.93
2017-12-06T19:11:31.603Z,100637.06
2017-12-06T19:13:58.021Z,100645.19
2017-12-06T19:16:24.452Z,100650.92
2017-12-06T19:18:50.816Z,100642.78
2017-12-06T19:21:17.489Z,100648.18
2017-12-06T19:23:43.921Z,100642.34
2017-12-06T19:26:10.296Z,100635.85
2017-12-06T19:28:36.676Z,100632.55
2017-12-06T19:31:03.111Z,100636.45
2017-12-06T19:33:29.521Z,100625.80
2017-12-06T19:35:55.872Z,100635.41
2017-12-06T19:38:22.276Z,100634.44
2017-12-06T19:40:48.633Z,100627.07
2017-12-06T19:43:15.020Z,100626.41
2017-12-06T19:45:41.452Z,100631.72
2017-12-06T19:48:07.809Z,100630.07
2017-12-06T19:50:34.140Z,100626.77
2017-12-06T19:53:00.532Z,100630.07
2017-12-06T19:55:26.896Z,100629.84
2017-12-06T19:57:53.236Z,100630.10
2017-12-06T20:00:19.772Z,100633.34
2017-12-06T20:02:46.109Z,100631.53
2017-12-06T20:05:12.488Z,100625.80
2017-12-06T20:07:38.896Z,100614.42
2017-12-06T20:10:05.232Z,100616.98
2017-12-06T20:12:31.590Z,100620.30
2017-12-06T20:14:58.064Z,100624.16
2017-12-06T20:17:24.588Z,100625.42
2017-12-06T20:19:50.952Z,100620.17
2017-12-06T20:22:17.397Z,100615.97
2017-12-06T20:24:43.749Z,100620.73
2017-12-06T20:27:10.102Z,100618.39
2017-12-06T20:29:36.493Z,100615.33
2017-12-06T20:32:02.900Z,100620.64
2017-12-06T20:34:29.249Z,100619.51
2017-12-06T20:36:55.629Z,100623.70
2017-12-06T20:39:22.010Z,100621.22
2017-12-06T20:41:48.397Z,100621.39
2017-12-06T20:44:15.022Z,100622.03
2017-12-06T20:46:41.408Z,100620.54
2017-12-06T20:49:07.828Z,100614.49
2017-12-06T20:51:34.320Z,100617.18
2017-12-06T20:54:00.792Z,100614.75
2017-12-06T20:56:27.172Z,100618.17
2017-12-06T20:58:53.582Z,100617.73
2017-12-06T21:01:19.958Z,100608.69
2017-12-06T21:03:46.329Z,100617.47
2017-12-06T21:06:12.753Z,100619.09
2017-12-06T21:08:39.186Z,100616.05
2017-12-06T21:11:05.615Z,100614.69
2017-12-06T21:13:32.072Z,100611.56
2017-12-06T21:15:58.497Z,100617.61
2017-12-06T21:18:24.929Z,100615.25
2017-12-06T21:20:51.453Z,100608.88
2017-12-06T21:23:18.032Z,100612.67
2017-12-06T21:25:44.445Z,100603.06
2017-12-06T21:28:10.870Z,100596.66
2017-12-06T21:30:37.400Z,100606.49
2017-12-06T21:33:03.804Z,100603.47
2017-12-06T21:35:30.232Z,100604.33
2017-12-06T21:37:56.608Z,100599.94
2017-12-06T21:40:23.248Z,100607.75
2017-12-06T21:42:49.656Z,100606.08
2017-12-06T21:45:16.008Z,100614.69
2017-12-06T21:47:42.349Z,100619.44
2017-12-06T21:50:08.759Z,100620.28
2017-12-06T21:52:35.132Z,100614.39
2017-12-06T21:55:01.540Z,100619.13
2017-12-06T21:57:27.928Z,100618.58
2017-12-06T21:59:54.308Z,100622.45
2017-12-06T22:02:20.652Z,100614.45
2017-12-06T22:04:59.336Z,100613.69
2017-12-06T22:07:25.716Z,100617.44
2017-12-06T22:09:52.088Z,100612.50
2017-12-06T22:12:18.534Z,100607.31
2017-12-06T22:14:44.923Z,100606.94
2017-12-06T22:17:11.273Z,100600.94
2017-12-06T22:19:37.679Z,100597.94
2017-12-06T22:22:04.048Z,100592.13
2017-12-06T22:24:30.393Z,100592.14
2017-12-06T22:26:56.784Z,100590.92
2017-12-06T22:29:23.149Z,100596.92
2017-12-06T22:31:49.488Z,100602.88
2017-12-06T22:34:15.924Z,100605.44
2017-12-06T22:36:42.290Z,100603.61
2017-12-06T22:39:08.659Z,100601.33
2017-12-06T22:41:35.068Z,100596.20
2017-12-06T22:44:01.436Z,100583.99
2017-12-06T22:46:27.780Z,100584.92
2017-12-06T22:48:54.187Z,100587.05
2017-12-06T22:51:20.646Z,100578.43
2017-12-06T22:53:47.065Z,100572.39
2017-12-06T22:56:13.548Z,100574.08
2017-12-06T22:58:39.896Z,100563.17
2017-12-06T23:01:06.305Z,100580.23
2017-12-06T23:03:32.759Z,100575.67
2017-12-06T23:05:59.121Z,100573.25
2017-12-06T23:08:25.533Z,100579.44
2017-12-06T23:10:51.943Z,100582.58
2017-12-06T23:13:18.360Z,100580.44
2017-12-06T23:15:44.748Z,100574.04
2017-12-06T23:18:11.177Z,100572.22
2017-12-06T23:20:37.539Z,100571.03
2017-12-06T23:23:03.906Z,100584.02
2017-12-06T23:25:30.352Z,100572.39
2017-12-06T23:27:56.752Z,100576.39
2017-12-06T23:30:24.273Z,100581.36
2017-12-06T23:32:50.687Z,100573.52
2017-12-06T23:35:17.059Z,100570.95
2017-12-06T23:37:43.431Z,100569.65
2017-12-06T23:40:09.896Z,100571.91
2017-12-06T23:42:36.283Z,100568.86
2017-12-06T23:45:02.712Z,100558.94
2017-12-06T23:47:29.129Z,100553.05
2017-12-06T23:49:55.515Z,100556.22
2017-12-06T23:52:21.888Z,100553.65
2017-12-06T23:54:48.292Z,100551.04
2017-12-06T23:57:14.672Z,100550.28
2017-12-06T23:59:41.015Z,100558.55
